• Join FlightAware (Why Join?)
  • Login
  • US Flag 
05:35PM EDT


 

Airport Tracker/Info


-or-


 

Live Flight TrackerFlight Track Log ✈ N2145M ✈ 03-May-2012 ✈ KBED - KBED

Flight Track Log - Related Links

Times and Time Zones

All times are in EDT time to prevent confusion due to time zone crossing. See the N2145M flight status page for this flight to view local times or setup timezone preferences in your user account.

Time Position Orientation Groundspeed Altitude Reporting Facility
EDT Latitude Longitude Course Direction KTS MPH feet Rate Location/Type
05:52PM 42.4833 -71.2333 56° Northeast 105 121 1,400  Level Boston TRACON
05:54PM 42.5000 -71.2000 20° North 105 121 2,100 480 Climbing Boston TRACON
05:55PM 42.5333 -71.1833 20° North 107 123 2,500 420 Climbing Boston TRACON
05:56PM 42.5667 -71.1667 36° Northeast 107 123 3,000 300 Climbing Boston TRACON
05:56PM 42.5833 -71.1500 20° North 114 131 3,100  Climbing Boston TRACON
05:58PM 42.6167 -71.1333 20° North 128 147 3,100 -60 Level Boston TRACON
05:59PM 42.6500 -71.1167 20° North 129 148 3,000 -60 Descending Boston TRACON
06:00PM 42.6833 -71.1000 360° North 125 144 3,000  Level Boston TRACON
06:01PM 42.7167 -71.1000 20° North 123 142 3,100  Climbing Boston TRACON
06:02PM 42.7500 -71.0833 56° Northeast 137 158 3,100 300 Level Boston TRACON
06:03PM 42.7667 -71.0500 20° North 87 100 3,800 540 Climbing Boston TRACON
06:04PM 42.8000 -71.0333 36° Northeast 90 104 4,300 180 Climbing Boston TRACON
06:05PM 42.8167 -71.0167 360° North 84 97 4,200 60 Descending Boston TRACON
06:06PM 42.8333 -71.0167 90° East 71 82 4,500 180 Climbing Boston TRACON
06:07PM 42.8333 -71.0000 216° Southwest 93 107 4,600 -60 Climbing Boston TRACON
06:08PM 42.8167 -71.0167 216° Southwest 112 129 4,400 -300 Descending Boston TRACON
06:09PM 42.7833 -71.0500 216° Southwest 121 139 4,000 -420 Descending Boston TRACON
06:10PM 42.7667 -71.0667 236° Southwest 124 143 3,600 -300 Descending Boston TRACON
06:11PM 42.7500 -71.1000 360° North 103 119 3,500  Descending Boston TRACON
06:12PM 42.7500 -71.1000 36° Northeast 103 119 3,600  Climbing Boston TRACON
06:12PM 42.7667 -71.0833 20° North 100 115 3,600 60 Level Boston TRACON
06:14PM 42.8000 -71.0667 36° Northeast 107 123 3,800 180 Climbing Boston TRACON
06:15PM 42.8167 -71.0500 90° East 110 127 4,100 180 Climbing Boston TRACON
06:15PM 42.8167 -71.0167 200° South 114 131 4,200 60 Climbing Boston TRACON
06:16PM 42.7833 -71.0333 236° Southwest 110 127 4,300 -60 Climbing Boston TRACON
06:18PM 42.7667 -71.0667 236° Southwest 109 125 4,100 -120 Descending Boston TRACON
06:19PM 42.7500 -71.1000 270° West 106 122 4,100 -120 Level Boston TRACON
06:20PM 42.7500 -71.1167 144° Southeast 113 130 3,900  Descending Boston TRACON
06:21PM 42.7333 -71.1000 236° Southwest 106 122 4,200 240 Climbing Boston TRACON
06:22PM 42.7167 -71.1333 36° Northeast 106 122 4,400 -60 Climbing Boston TRACON
06:23PM 42.7333 -71.1167 36° Northeast 121 139 4,100 -300 Descending Boston TRACON